UGSB/BUS METAR and TAF weather

Enter ICAO airport designator
Station Type Date Time Source
UGSB METAR 2022/08/12 14:30 UTC NOAA

UGSB 121430Z 22007KT 9999 OVC036 26/22 Q1011 NOSIG


Station Type Date Time Source
UGSB Decoded METAR 2022/08/12 14:30 UTC NOAA

Station name not available
Aug 12, 2022 - 10:30 AM EDT / 2022.08.12 1430 UTC
Wind: from the SW (220 degrees) at 8 MPH (7 KT):0
Visibility: greater than 7 mile(s):0
Sky conditions: overcast
Temperature: 78 F (26 C)
Dew Point: 71 F (22 C)
Relative Humidity: 78%
Pressure (altimeter): 29.85 in. Hg (1011 hPa)
ob: UGSB 121430Z 22007KT 9999 OVC036 26/22 Q1011 NOSIG
cycle: 14

Station Type Date Time Source
UGSB TAF 2022/08/12 12:06 UTC NOAA

TAF UGSB 121100Z 1212/1312 23010KT 9999 FEW020 BKN035 TX28/1212Z TN22/1302Z
TEMPO 1212/1218 TSRA BKN025CB
BECMG 1218/1220 13010KT
TEMPO 1222/1304 VRB10KT 5000 TSRA BKN017CB

Example: see airport list